createdAt,value
2023-08-07T00:03:39.905Z,97577.73
2023-08-07T00:08:41.742Z,97573.09
2023-08-07T00:13:43.598Z,97571.56
2023-08-07T00:18:45.493Z,97568.11
2023-08-07T00:23:47.429Z,97565.01
2023-08-07T00:28:49.450Z,97563.88
2023-08-07T00:33:55.192Z,97561.53
2023-08-07T00:38:57.148Z,97566.02
2023-08-07T00:43:59.204Z,97569.28
2023-08-07T00:49:01.131Z,97561.13
2023-08-07T00:54:05.257Z,97557.16
2023-08-07T00:59:07.711Z,97554.16
2023-08-07T01:04:09.546Z,97557.20
2023-08-07T01:09:11.474Z,97556.38
2023-08-07T01:14:19.576Z,97560.48
2023-08-07T01:19:28.444Z,97564.29
2023-08-07T01:24:30.435Z,97559.39
2023-08-07T01:29:41.741Z,97564.56
2023-08-07T01:34:45.396Z,97562.14
2023-08-07T01:39:48.444Z,97564.00
2023-08-07T01:44:51.356Z,97563.11
2023-08-07T01:49:53.460Z,97568.48
2023-08-07T01:54:55.397Z,97573.47
2023-08-07T01:59:57.294Z,97569.79
2023-08-07T02:04:59.190Z,97570.08
2023-08-07T02:10:01.130Z,97568.49
2023-08-07T02:15:03.437Z,97565.89
2023-08-07T02:20:06.720Z,97569.16
2023-08-07T02:25:09.051Z,97568.97
2023-08-07T02:30:13.279Z,97567.23
2023-08-07T02:35:15.203Z,97569.63
2023-08-07T02:40:18.859Z,97566.13
2023-08-07T02:45:20.700Z,97562.09
2023-08-07T02:50:22.570Z,97558.07
2023-08-07T02:55:24.436Z,97561.48
2023-08-07T03:00:26.390Z,97566.29
2023-08-07T03:05:28.396Z,97570.91
2023-08-07T03:10:30.388Z,97579.49
2023-08-07T03:15:32.252Z,97578.22
2023-08-07T03:20:34.073Z,97580.94
2023-08-07T03:25:35.934Z,97577.13
2023-08-07T03:30:39.349Z,97582.84
2023-08-07T03:35:42.428Z,97594.94
2023-08-07T03:40:45.490Z,97601.89
2023-08-07T03:45:47.420Z,97603.27
2023-08-07T03:50:49.809Z,97607.36
2023-08-07T03:55:53.102Z,97605.61
2023-08-07T04:07:10.992Z,97609.02
2023-08-07T04:12:13.009Z,97611.64
2023-08-07T04:17:14.838Z,97610.44
2023-08-07T04:22:16.641Z,97612.31
2023-08-07T04:27:18.463Z,97619.04
2023-08-07T04:32:20.371Z,97617.67
2023-08-07T04:37:22.536Z,97617.49
2023-08-07T04:42:24.594Z,97613.31
2023-08-07T04:47:26.839Z,97616.27
2023-08-07T04:52:29.064Z,97614.05
2023-08-07T04:57:30.867Z,97610.73
2023-08-07T05:02:32.777Z,97616.36
2023-08-07T05:07:35.911Z,97616.51
2023-08-07T05:12:37.778Z,97623.84
2023-08-07T05:17:39.730Z,97629.17
2023-08-07T05:22:41.547Z,97630.34
2023-08-07T05:27:44.394Z,97632.89
2023-08-07T05:32:46.322Z,97634.36
2023-08-07T05:37:48.252Z,97630.82
2023-08-07T05:42:50.868Z,97628.52
2023-08-07T05:47:52.745Z,97630.17
2023-08-07T05:52:55.047Z,97636.50
2023-08-07T05:57:56.838Z,97636.44
2023-08-07T06:02:58.778Z,97637.88
2023-08-07T06:08:00.616Z,97643.84
2023-08-07T06:13:02.508Z,97658.92
2023-08-07T06:18:04.530Z,97665.27
2023-08-07T06:23:06.532Z,97660.76
2023-08-07T06:28:08.377Z,97662.36
2023-08-07T06:33:11.713Z,97666.42
2023-08-07T06:38:15.756Z,97666.70
2023-08-07T06:43:18.034Z,97667.75
2023-08-07T06:48:19.933Z,97668.07
2023-08-07T06:53:21.901Z,97671.53
2023-08-07T06:58:23.816Z,97677.70
2023-08-07T07:03:25.843Z,97682.60
2023-08-07T07:08:27.748Z,97685.83
2023-08-07T07:13:30.976Z,97690.23
2023-08-07T07:18:33.056Z,97698.04
2023-08-07T07:23:52.826Z,97702.75
2023-08-07T07:28:54.874Z,97706.52
2023-08-07T07:33:56.902Z,97708.03
2023-08-07T07:38:58.842Z,97714.50
2023-08-07T07:44:05.005Z,97719.57
2023-08-07T07:49:08.301Z,97726.79
2023-08-07T07:54:15.190Z,97729.40
2023-08-07T07:59:17.818Z,97735.63
2023-08-07T08:04:20.645Z,97740.59
2023-08-07T08:09:22.678Z,97740.08
2023-08-07T08:14:24.577Z,97742.13
2023-08-07T08:19:29.066Z,97745.58
2023-08-07T08:24:36.095Z,97750.45
2023-08-07T08:29:37.952Z,97754.39
2023-08-07T08:34:39.814Z,97761.30
2023-08-07T08:39:41.642Z,97765.95
2023-08-07T08:44:48.109Z,97769.83
2023-08-07T08:50:05.832Z,97771.45
2023-08-07T08:55:09.195Z,97775.21
2023-08-07T09:00:24.856Z,97776.11
2023-08-07T09:11:05.523Z,97787.66
2023-08-07T09:16:30.100Z,97788.17
2023-08-07T09:21:37.469Z,97796.43
2023-08-07T09:26:44.938Z,97797.66
2023-08-07T09:31:47.627Z,97801.73
2023-08-07T09:36:52.175Z,97802.17
2023-08-07T09:41:54.539Z,97800.38
2023-08-07T09:46:56.704Z,97805.06
2023-08-07T09:51:58.792Z,97808.91
2023-08-07T09:57:03.328Z,97810.70
2023-08-07T10:02:05.953Z,97820.64
2023-08-07T10:07:08.052Z,97852.87
2023-08-07T10:12:10.083Z,97865.06
2023-08-07T10:17:12.295Z,97877.99
2023-08-07T10:22:17.662Z,97882.50
2023-08-07T10:27:24.712Z,97880.72
2023-08-07T10:32:28.118Z,97887.67
2023-08-07T10:37:42.213Z,97891.52
2023-08-07T10:42:54.289Z,97889.91
2023-08-07T10:48:10.475Z,97886.72
2023-08-07T10:53:21.221Z,97889.42
2023-08-07T10:58:30.454Z,97891.16
2023-08-07T11:03:37.596Z,97890.61
2023-08-07T11:08:40.082Z,97893.52
2023-08-07T11:13:42.071Z,97891.63
2023-08-07T11:18:46.798Z,97897.88
2023-08-07T11:23:48.683Z,97898.36
2023-08-07T11:28:50.749Z,97893.75
2023-08-07T11:33:53.972Z,97904.31
2023-08-07T11:38:56.401Z,97907.37
2023-08-07T11:43:58.203Z,97912.77
2023-08-07T11:49:00.648Z,97918.08
2023-08-07T11:54:03.957Z,97920.72
2023-08-07T11:59:07.448Z,97919.48
2023-08-07T12:04:11.083Z,97922.56
2023-08-07T12:09:14.395Z,97931.09
2023-08-07T12:14:18.384Z,97932.38
2023-08-07T12:19:20.353Z,97935.79
2023-08-07T12:24:23.908Z,97936.64
2023-08-07T12:29:29.889Z,97944.98
2023-08-07T12:44:41.643Z,97952.90
2023-08-07T12:49:43.582Z,97961.79
2023-08-07T12:54:45.356Z,97959.35
2023-08-07T12:59:47.297Z,97967.15
2023-08-07T13:04:49.133Z,97971.80
2023-08-07T13:09:52.227Z,97978.71
2023-08-07T13:14:54.328Z,97985.77
2023-08-07T13:19:56.143Z,97981.69
2023-08-07T13:24:58.110Z,97980.66
2023-08-07T13:30:00.059Z,97980.42
2023-08-07T13:35:02.164Z,97981.39
2023-08-07T13:40:05.806Z,97985.45
2023-08-07T13:45:08.798Z,97986.46
2023-08-07T13:50:14.176Z,97987.91
2023-08-07T13:55:16.250Z,97993.31
2023-08-07T14:00:19.024Z,97999.69
2023-08-07T14:05:21.018Z,97995.93
2023-08-07T14:10:22.877Z,97995.66
2023-08-07T14:15:26.074Z,98000.75
2023-08-07T14:20:28.265Z,98003.65
2023-08-07T14:25:30.344Z,98007.49
2023-08-07T14:30:32.154Z,98013.48
2023-08-07T14:35:34.060Z,98018.02
2023-08-07T14:40:39.290Z,98020.34
2023-08-07T14:45:41.551Z,98019.89
2023-08-07T14:50:43.599Z,98031.79
2023-08-07T14:55:46.498Z,98048.27
2023-08-07T15:00:48.385Z,98050.86
2023-08-07T15:05:50.271Z,98053.67
2023-08-07T15:10:54.321Z,98048.20
2023-08-07T15:15:56.386Z,98044.98
2023-08-07T15:21:01.845Z,98055.25
2023-08-07T15:26:03.924Z,98058.36
2023-08-07T15:31:05.819Z,98063.44
2023-08-07T15:36:07.741Z,98052.42
2023-08-07T15:41:12.264Z,98059.19
2023-08-07T15:46:14.241Z,98075.10
2023-08-07T15:51:16.164Z,98082.29
2023-08-07T15:56:18.024Z,98083.37
2023-08-07T16:01:20.018Z,98087.39
2023-08-07T16:06:22.860Z,98087.87
2023-08-07T16:11:24.707Z,98092.44
2023-08-07T16:16:26.584Z,98096.33
2023-08-07T16:21:28.543Z,98100.91
2023-08-07T16:26:30.495Z,98109.09
2023-08-07T16:31:32.319Z,98110.88
2023-08-07T16:36:34.327Z,98116.33
2023-08-07T16:41:36.363Z,98125.64
2023-08-07T16:46:38.386Z,98129.34
2023-08-07T16:51:40.293Z,98124.34
2023-08-07T16:56:42.245Z,98133.91
2023-08-07T17:01:44.154Z,98132.07
2023-08-07T17:06:46.040Z,98136.41
2023-08-07T17:11:47.865Z,98129.52
2023-08-07T17:16:49.752Z,98135.84
2023-08-07T17:21:52.148Z,98136.79
2023-08-07T17:26:55.608Z,98136.31
2023-08-07T17:31:59.261Z,98145.32
2023-08-07T17:37:03.032Z,98152.02
2023-08-07T17:42:05.611Z,98157.54
2023-08-07T17:47:11.745Z,98166.48
2023-08-07T17:52:13.956Z,98163.64
2023-08-07T17:57:16.036Z,98167.61
2023-08-07T18:02:17.826Z,98169.16
2023-08-07T18:07:19.721Z,98171.65
2023-08-07T18:12:21.575Z,98174.27
2023-08-07T18:17:24.548Z,98181.04
2023-08-07T18:22:26.990Z,98187.39
2023-08-07T18:27:28.979Z,98193.63
2023-08-07T18:32:31.989Z,98204.83
2023-08-07T18:37:34.027Z,98211.52
2023-08-07T18:42:36.003Z,98213.11
2023-08-07T18:47:39.094Z,98214.23
2023-08-07T18:52:41.003Z,98221.18
2023-08-07T18:57:43.199Z,98230.58
2023-08-07T19:02:45.983Z,98238.73
2023-08-07T19:07:47.890Z,98242.21
2023-08-07T19:12:49.769Z,98247.75
2023-08-07T19:17:52.050Z,98254.14
2023-08-07T19:22:53.984Z,98267.45
2023-08-07T19:27:55.834Z,98269.54
2023-08-07T19:32:59.696Z,98276.27
2023-08-07T19:38:02.098Z,98283.55
2023-08-07T19:43:04.184Z,98290.67
2023-08-07T19:48:06.542Z,98292.58
2023-08-07T19:53:08.602Z,98293.48
2023-08-07T19:58:10.480Z,98302.33
2023-08-07T20:03:14.988Z,98302.34
2023-08-07T20:08:17.237Z,98311.17
2023-08-07T20:13:20.643Z,98319.16
2023-08-07T20:18:22.540Z,98321.11
2023-08-07T20:23:26.142Z,98325.97
2023-08-07T20:28:28.055Z,98326.33
2023-08-07T20:33:29.979Z,98328.29
2023-08-07T20:38:32.011Z,98335.39
2023-08-07T20:43:33.974Z,98336.78
2023-08-07T20:48:35.774Z,98334.56
2023-08-07T20:53:38.432Z,98337.19
2023-08-07T20:58:40.331Z,98341.52
2023-08-07T21:03:42.191Z,98342.57
2023-08-07T21:08:44.179Z,98351.07
2023-08-07T21:13:45.965Z,98355.93
2023-08-07T21:18:48.131Z,98356.81
2023-08-07T21:23:49.946Z,98357.16
2023-08-07T21:28:52.525Z,98359.76
2023-08-07T21:33:55.864Z,98360.45
2023-08-07T21:38:59.077Z,98365.81
2023-08-07T21:44:01.012Z,98370.33
2023-08-07T21:49:02.805Z,98372.23
2023-08-07T21:54:04.751Z,98378.27
2023-08-07T21:59:06.634Z,98380.38
2023-08-07T22:04:11.222Z,98390.73
2023-08-07T22:09:13.156Z,98397.13
2023-08-07T22:14:15.052Z,98401.48
2023-08-07T22:19:17.064Z,98407.19
2023-08-07T22:24:19.111Z,98410.46
2023-08-07T22:29:20.906Z,98415.31
2023-08-07T22:34:23.064Z,98421.35
2023-08-07T22:39:25.201Z,98427.73
2023-08-07T22:44:27.214Z,98427.95
2023-08-07T22:49:30.871Z,98435.38
2023-08-07T22:54:32.938Z,98438.52
2023-08-07T22:59:34.795Z,98446.14
2023-08-07T23:04:36.769Z,98448.73
2023-08-07T23:09:40.698Z,98454.81
2023-08-07T23:14:42.573Z,98454.99
2023-08-07T23:19:47.480Z,98457.77
2023-08-07T23:24:49.500Z,98456.90
2023-08-07T23:29:51.912Z,98457.59
2023-08-07T23:34:54.015Z,98472.61
2023-08-07T23:39:55.859Z,98478.34
2023-08-07T23:45:04.303Z,98481.80
2023-08-07T23:50:07.550Z,98484.59
2023-08-07T23:55:09.745Z,98485.10
